createdAt,value
2022-11-25T00:03:23.428Z,12.85
2022-11-25T00:08:26.153Z,10.50
2022-11-25T00:13:28.959Z,18.52
2022-11-25T00:18:32.183Z,16.98
2022-11-25T00:23:35.592Z,17.13
2022-11-25T00:28:38.376Z,12.75
2022-11-25T00:33:41.127Z,16.05
2022-11-25T00:38:44.850Z,19.90
2022-11-25T00:44:05.960Z,12.45
2022-11-25T00:49:08.827Z,10.48
2022-11-25T00:59:14.123Z,16.88
2022-11-25T01:04:17.360Z,9.68
2022-11-25T01:09:20.599Z,14.07
2022-11-25T01:14:23.823Z,14.00
2022-11-25T01:19:26.834Z,17.35
2022-11-25T01:24:29.488Z,14.82
2022-11-25T01:29:32.552Z,14.52
2022-11-25T01:34:36.019Z,19.48
2022-11-25T01:39:40.124Z,16.55
2022-11-25T01:44:43.625Z,14.77
2022-11-25T01:50:05.232Z,13.43
2022-11-25T01:55:14.308Z,13.00
2022-11-25T02:00:19.624Z,19.27
2022-11-25T02:05:53.561Z,13.07
2022-11-25T02:10:56.930Z,16.10
2022-11-25T02:15:59.676Z,12.45
2022-11-25T02:21:02.902Z,13.63
2022-11-25T02:26:06.115Z,13.65
2022-11-25T02:31:09.014Z,17.95
2022-11-25T02:36:16.571Z,16.13
2022-11-25T02:41:28.245Z,16.80
2022-11-25T02:46:35.048Z,13.90
2022-11-25T02:51:40.472Z,21.33
2022-11-25T02:56:45.109Z,21.90
2022-11-25T03:06:50.343Z,8.88
2022-11-25T03:12:11.857Z,8.63
2022-11-25T03:17:15.031Z,11.90
2022-11-25T03:27:20.357Z,14.13
2022-11-25T03:32:23.082Z,14.23
2022-11-25T03:37:25.856Z,12.27
2022-11-25T03:42:28.603Z,14.60
2022-11-25T03:47:33.124Z,13.27
2022-11-25T03:52:36.312Z,11.95
2022-11-25T03:57:39.568Z,14.25
2022-11-25T04:02:43.036Z,11.30
2022-11-25T04:07:46.071Z,8.23
2022-11-25T04:12:49.006Z,15.10
2022-11-25T04:17:55.804Z,14.65
2022-11-25T04:22:58.488Z,12.23
2022-11-25T04:28:01.334Z,13.50
2022-11-25T04:33:08.349Z,8.77
2022-11-25T04:38:11.118Z,1.90
2022-11-25T04:43:14.820Z,8.27
2022-11-25T04:48:25.588Z,12.20
2022-11-25T05:03:57.330Z,16.13
2022-11-25T05:09:02.302Z,15.35
2022-11-25T05:14:06.494Z,5.38
2022-11-25T05:24:12.249Z,15.48
2022-11-25T05:29:15.175Z,16.85
2022-11-25T05:34:19.370Z,16.00
2022-11-25T05:39:22.497Z,13.50
2022-11-25T05:44:43.606Z,16.95
2022-11-25T05:49:46.542Z,11.07
2022-11-25T05:54:51.266Z,3.95
2022-11-25T05:59:58.008Z,16.08
2022-11-25T06:05:21.071Z,5.55
2022-11-25T06:10:24.803Z,4.82
2022-11-25T06:15:28.394Z,4.30
2022-11-25T06:20:35.110Z,7.40
2022-11-25T06:25:38.022Z,1.48
2022-11-25T06:30:42.292Z,7.65
2022-11-25T06:35:52.481Z,6.43
2022-11-25T06:41:00.213Z,9.52
2022-11-25T06:46:05.282Z,2.72
2022-11-25T06:51:10.811Z,2.38
2022-11-25T06:56:18.852Z,8.43
2022-11-25T07:01:24.068Z,4.82
2022-11-25T07:06:26.839Z,3.72
2022-11-25T07:11:31.802Z,10.57
2022-11-25T07:16:35.003Z,13.68
2022-11-25T07:21:37.747Z,11.15
2022-11-25T07:26:41.608Z,8.70
2022-11-25T07:31:45.750Z,11.73
2022-11-25T07:36:49.937Z,4.93
2022-11-25T07:41:54.339Z,7.22
2022-11-25T07:46:57.721Z,4.05
2022-11-25T07:52:02.018Z,9.30
2022-11-25T07:57:04.750Z,5.75
2022-11-25T08:02:09.477Z,4.05
2022-11-25T08:07:12.529Z,5.07
2022-11-25T08:12:15.313Z,13.52
2022-11-25T08:17:17.952Z,1.85
2022-11-25T08:22:20.637Z,6.63
2022-11-25T08:27:23.450Z,3.13
2022-11-25T08:32:26.100Z,6.68
2022-11-25T08:37:31.314Z,4.05
2022-11-25T08:42:34.332Z,11.20
2022-11-25T08:52:39.782Z,7.57
2022-11-25T08:57:42.548Z,4.50
2022-11-25T09:02:45.244Z,6.95
2022-11-25T09:07:48.217Z,3.30
2022-11-25T09:12:51.042Z,5.60
2022-11-25T09:23:08.681Z,5.70
2022-11-25T09:28:11.706Z,6.38
2022-11-25T09:33:14.602Z,5.13
2022-11-25T09:43:51.194Z,3.05
2022-11-25T09:49:00.159Z,3.58
2022-11-25T09:54:15.622Z,6.30
2022-11-25T09:59:29.224Z,11.30
2022-11-25T10:04:36.884Z,11.77
2022-11-25T10:09:39.961Z,8.15
2022-11-25T10:14:47.008Z,8.63
2022-11-25T10:19:57.871Z,3.00
2022-11-25T10:25:14.924Z,5.00
2022-11-25T10:30:22.005Z,9.15
2022-11-25T10:35:37.483Z,9.45
2022-11-25T10:40:40.205Z,16.25
2022-11-25T10:46:07.063Z,13.75
2022-11-25T10:51:29.653Z,25.80
2022-11-25T10:56:44.064Z,7.97
2022-11-25T11:01:46.957Z,41.70
2022-11-25T11:06:51.547Z,13.48
2022-11-25T11:11:54.231Z,10.80
2022-11-25T11:16:57.978Z,14.13
2022-11-25T11:22:16.419Z,7.25
2022-11-25T11:27:24.035Z,18.92
2022-11-25T11:32:29.028Z,14.73
2022-11-25T11:37:44.724Z,22.85
2022-11-25T11:43:14.029Z,19.05
2022-11-25T11:48:28.865Z,19.52
2022-11-25T11:53:36.758Z,24.77
2022-11-25T11:58:57.820Z,14.60
2022-11-25T12:04:21.831Z,34.17
2022-11-25T12:09:25.942Z,15.85
2022-11-25T12:14:48.811Z,15.10
2022-11-25T12:20:10.166Z,15.75
2022-11-25T12:25:24.628Z,10.80
2022-11-25T12:30:36.773Z,22.75
2022-11-25T12:35:48.506Z,10.00
2022-11-25T12:41:14.445Z,10.75
2022-11-25T12:46:40.633Z,11.07
2022-11-25T12:52:01.695Z,9.27
2022-11-25T12:57:30.346Z,12.88
2022-11-25T13:02:35.942Z,10.50
2022-11-25T13:08:03.261Z,6.28
2022-11-25T13:13:39.395Z,9.90
2022-11-25T13:18:44.253Z,6.57
2022-11-25T13:23:49.264Z,7.32
2022-11-25T13:28:52.332Z,7.00
2022-11-25T13:34:21.827Z,4.53
2022-11-25T13:39:24.446Z,12.73
2022-11-25T13:44:32.597Z,15.30
2022-11-25T13:49:51.733Z,10.13
2022-11-25T13:54:56.056Z,10.55
2022-11-25T14:00:07.716Z,11.45
2022-11-25T14:05:39.748Z,8.45
2022-11-25T14:10:51.306Z,10.90
2022-11-25T14:16:08.817Z,13.55
2022-11-25T14:21:45.718Z,5.80
2022-11-25T14:26:52.454Z,15.05
2022-11-25T14:32:13.497Z,18.73
2022-11-25T14:42:36.761Z,9.18
2022-11-25T14:47:39.520Z,7.85
2022-11-25T14:52:44.475Z,7.32
2022-11-25T14:57:47.279Z,8.13
2022-11-25T15:02:56.712Z,6.47
2022-11-25T15:08:12.063Z,5.50
2022-11-25T15:13:41.399Z,4.40
2022-11-25T15:18:58.878Z,1.40
2022-11-25T15:24:03.097Z,5.45
2022-11-25T15:29:12.753Z,2.30
2022-11-25T15:34:16.340Z,2.92
2022-11-25T15:39:22.079Z,2.97
2022-11-25T15:44:28.868Z,7.40
2022-11-25T15:49:32.818Z,11.32
2022-11-25T15:54:45.204Z,2.78
2022-11-25T15:59:53.928Z,3.55
2022-11-25T16:05:17.442Z,5.60
2022-11-25T16:10:22.994Z,2.67
2022-11-25T16:15:57.523Z,2.63
2022-11-25T16:21:05.992Z,4.78
2022-11-25T16:26:11.768Z,2.55
2022-11-25T16:31:16.953Z,2.90
2022-11-25T16:36:19.755Z,4.50
2022-11-25T16:41:24.978Z,2.92
2022-11-25T16:46:28.474Z,2.22
2022-11-25T16:51:31.187Z,2.22
2022-11-25T16:56:35.583Z,5.07
2022-11-25T17:01:38.290Z,6.50
2022-11-25T17:06:42.566Z,8.35
2022-11-25T17:11:47.210Z,5.72
2022-11-25T17:16:50.010Z,6.10
2022-11-25T17:21:52.807Z,4.93
2022-11-25T17:27:04.464Z,2.25
2022-11-25T17:32:07.505Z,1.63
2022-11-25T17:37:18.736Z,1.52
2022-11-25T17:42:30.956Z,2.63
2022-11-25T17:47:33.586Z,3.47
2022-11-25T17:52:36.216Z,2.53
2022-11-25T17:57:39.625Z,3.58
2022-11-25T18:02:42.309Z,6.80
2022-11-25T18:07:45.078Z,3.20
2022-11-25T18:12:49.935Z,1.98
2022-11-25T18:17:57.543Z,3.35
2022-11-25T18:23:01.267Z,5.57
2022-11-25T18:28:05.008Z,4.72
2022-11-25T18:33:13.919Z,2.03
2022-11-25T18:38:16.554Z,2.20
2022-11-25T18:43:23.652Z,0.73
2022-11-25T18:48:27.287Z,0.35
2022-11-25T18:53:30.053Z,5.47
2022-11-25T18:58:33.391Z,4.90
2022-11-25T19:03:36.004Z,2.30
2022-11-25T19:08:38.655Z,0.93
2022-11-25T19:13:41.474Z,3.97
2022-11-25T19:18:48.766Z,2.58
2022-11-25T19:23:51.487Z,2.60
2022-11-25T19:29:00.111Z,0.30
2022-11-25T19:34:02.772Z,0.80
2022-11-25T19:39:14.735Z,1.40
2022-11-25T19:44:17.743Z,2.15
2022-11-25T19:49:20.620Z,2.42
2022-11-25T19:54:23.254Z,1.65
2022-11-25T19:59:25.934Z,6.55
2022-11-25T20:04:28.714Z,4.00
2022-11-25T20:09:31.376Z,0.93
2022-11-25T20:14:35.153Z,2.13
2022-11-25T20:19:38.612Z,1.58
2022-11-25T20:24:41.272Z,2.25
2022-11-25T20:29:43.960Z,2.33
2022-11-25T20:34:47.731Z,3.28
2022-11-25T20:39:52.447Z,2.35
2022-11-25T20:44:57.703Z,2.97
2022-11-25T20:50:00.617Z,2.97
2022-11-25T20:55:16.999Z,4.00
2022-11-25T21:00:25.623Z,3.70
2022-11-25T21:05:28.345Z,1.90
2022-11-25T21:10:35.186Z,4.35
2022-11-25T21:15:37.861Z,0.55
2022-11-25T21:20:41.323Z,3.00
2022-11-25T21:25:44.029Z,2.42
2022-11-25T21:30:47.426Z,2.65
2022-11-25T21:35:53.196Z,2.85
2022-11-25T21:40:56.812Z,2.20
2022-11-25T21:46:10.356Z,4.03
2022-11-25T21:51:14.774Z,2.00
2022-11-25T21:56:28.464Z,5.05
2022-11-25T22:01:31.624Z,2.33
2022-11-25T22:06:34.348Z,3.58
2022-11-25T22:11:39.371Z,3.75
2022-11-25T22:16:42.130Z,2.13
2022-11-25T22:21:45.168Z,8.88
2022-11-25T22:26:51.337Z,3.38
2022-11-25T22:31:57.425Z,1.75
2022-11-25T22:37:00.176Z,1.27
2022-11-25T22:42:07.993Z,1.98
2022-11-25T22:47:17.694Z,3.33
2022-11-25T22:52:21.988Z,7.20
2022-11-25T22:57:24.695Z,1.30
2022-11-25T23:02:31.929Z,3.53
2022-11-25T23:07:34.956Z,4.50
2022-11-25T23:12:37.639Z,2.67
2022-11-25T23:17:40.589Z,4.63
2022-11-25T23:22:43.307Z,1.20
2022-11-25T23:27:46.201Z,5.40
2022-11-25T23:32:50.677Z,7.03
2022-11-25T23:37:57.676Z,3.20
2022-11-25T23:43:00.458Z,2.22
2022-11-25T23:48:04.155Z,3.55
2022-11-25T23:53:08.284Z,2.95
2022-11-25T23:58:16.321Z,3.10
